sensor_id;sensor_type;location;lat;lon;timestamp;P1;durP1;ratioP1;P2;durP2;ratioP2
29812;SDS011;16707;48.106;11.548;2023-08-24T00:02:13;11.57;;;9.73;;
29812;SDS011;16707;48.106;11.548;2023-08-24T00:04:40;9.57;;;8.68;;
29812;SDS011;16707;48.106;11.548;2023-08-24T00:07:07;10.35;;;8.73;;
29812;SDS011;16707;48.106;11.548;2023-08-24T00:09:34;11.57;;;10.38;;
29812;SDS011;16707;48.106;11.548;2023-08-24T00:12:01;9.32;;;8.25;;
29812;SDS011;16707;48.106;11.548;2023-08-24T00:14:30;9.95;;;8.65;;
29812;SDS011;16707;48.106;11.548;2023-08-24T00:16:57;9.98;;;8.98;;
29812;SDS011;16707;48.106;11.548;2023-08-24T00:19:24;11.18;;;9.65;;
29812;SDS011;16707;48.106;11.548;2023-08-24T00:21:51;12.45;;;9.07;;
29812;SDS011;16707;48.106;11.548;2023-08-24T00:24:18;10.20;;;9.20;;
29812;SDS011;16707;48.106;11.548;2023-08-24T00:26:45;11.18;;;9.43;;
29812;SDS011;16707;48.106;11.548;2023-08-24T00:29:12;10.07;;;9.07;;
29812;SDS011;16707;48.106;11.548;2023-08-24T00:31:40;10.82;;;9.77;;
29812;SDS011;16707;48.106;11.548;2023-08-24T00:34:07;10.50;;;9.45;;
29812;SDS011;16707;48.106;11.548;2023-08-24T00:36:34;11.13;;;9.25;;
29812;SDS011;16707;48.106;11.548;2023-08-24T00:39:01;10.10;;;9.20;;
29812;SDS011;16707;48.106;11.548;2023-08-24T00:41:28;10.52;;;9.50;;
29812;SDS011;16707;48.106;11.548;2023-08-24T00:43:55;10.43;;;9.43;;
29812;SDS011;16707;48.106;11.548;2023-08-24T00:46:22;11.55;;;9.60;;
29812;SDS011;16707;48.106;11.548;2023-08-24T00:48:53;10.75;;;9.63;;
29812;SDS011;16707;48.106;11.548;2023-08-24T00:51:22;10.35;;;9.23;;
29812;SDS011;16707;48.106;11.548;2023-08-24T00:53:49;10.65;;;9.55;;
29812;SDS011;16707;48.106;11.548;2023-08-24T00:56:17;11.98;;;10.25;;
29812;SDS011;16707;48.106;11.548;2023-08-24T00:58:45;11.07;;;9.98;;
29812;SDS011;16707;48.106;11.548;2023-08-24T01:01:13;11.88;;;10.68;;
29812;SDS011;16707;48.106;11.548;2023-08-24T01:03:40;12.55;;;10.10;;
29812;SDS011;16707;48.106;11.548;2023-08-24T01:06:09;12.15;;;10.13;;
29812;SDS011;16707;48.106;11.548;2023-08-24T01:08:36;12.05;;;10.93;;
29812;SDS011;16707;48.106;11.548;2023-08-24T01:11:05;12.27;;;10.30;;
29812;SDS011;16707;48.106;11.548;2023-08-24T01:13:42;12.00;;;9.95;;
29812;SDS011;16707;48.106;11.548;2023-08-24T01:16:23;11.30;;;10.20;;
29812;SDS011;16707;48.106;11.548;2023-08-24T01:18:55;11.57;;;10.38;;
29812;SDS011;16707;48.106;11.548;2023-08-24T01:21:25;12.68;;;10.88;;
29812;SDS011;16707;48.106;11.548;2023-08-24T01:23:55;11.48;;;10.32;;
29812;SDS011;16707;48.106;11.548;2023-08-24T01:26:30;11.90;;;10.15;;
29812;SDS011;16707;48.106;11.548;2023-08-24T01:28:57;11.30;;;10.20;;
29812;SDS011;16707;48.106;11.548;2023-08-24T01:31:25;12.45;;;10.35;;
29812;SDS011;16707;48.106;11.548;2023-08-24T01:33:52;11.10;;;9.85;;
29812;SDS011;16707;48.106;11.548;2023-08-24T01:36:19;10.75;;;9.70;;
29812;SDS011;16707;48.106;11.548;2023-08-24T01:38:46;11.48;;;10.30;;
29812;SDS011;16707;48.106;11.548;2023-08-24T01:41:26;12.00;;;10.38;;
29812;SDS011;16707;48.106;11.548;2023-08-24T01:44:01;11.18;;;10.10;;
29812;SDS011;16707;48.106;11.548;2023-08-24T01:46:29;12.57;;;9.45;;
29812;SDS011;16707;48.106;11.548;2023-08-24T01:48:59;14.13;;;10.63;;
29812;SDS011;16707;48.106;11.548;2023-08-24T01:51:27;11.45;;;10.25;;
29812;SDS011;16707;48.106;11.548;2023-08-24T01:53:54;11.65;;;10.20;;
29812;SDS011;16707;48.106;11.548;2023-08-24T01:56:23;11.80;;;10.50;;
29812;SDS011;16707;48.106;11.548;2023-08-24T01:58:52;10.85;;;9.75;;
29812;SDS011;16707;48.106;11.548;2023-08-24T02:01:19;10.95;;;9.75;;
29812;SDS011;16707;48.106;11.548;2023-08-24T02:03:46;11.27;;;10.18;;
29812;SDS011;16707;48.106;11.548;2023-08-24T02:06:13;11.45;;;10.20;;
29812;SDS011;16707;48.106;11.548;2023-08-24T02:08:40;10.52;;;9.52;;
29812;SDS011;16707;48.106;11.548;2023-08-24T02:11:08;11.07;;;10.00;;
29812;SDS011;16707;48.106;11.548;2023-08-24T02:13:35;12.50;;;10.38;;
29812;SDS011;16707;48.106;11.548;2023-08-24T02:16:03;11.48;;;10.35;;
29812;SDS011;16707;48.106;11.548;2023-08-24T02:18:32;12.25;;;11.05;;
29812;SDS011;16707;48.106;11.548;2023-08-24T02:20:59;11.73;;;10.48;;
29812;SDS011;16707;48.106;11.548;2023-08-24T02:23:27;12.25;;;11.05;;
29812;SDS011;16707;48.106;11.548;2023-08-24T02:25:55;10.52;;;9.43;;
29812;SDS011;16707;48.106;11.548;2023-08-24T02:28:23;11.60;;;10.40;;
29812;SDS011;16707;48.106;11.548;2023-08-24T02:30:50;10.85;;;9.65;;
29812;SDS011;16707;48.106;11.548;2023-08-24T02:33:18;11.60;;;10.38;;
29812;SDS011;16707;48.106;11.548;2023-08-24T02:35:46;12.00;;;10.35;;
29812;SDS011;16707;48.106;11.548;2023-08-24T02:38:13;11.30;;;9.85;;
29812;SDS011;16707;48.106;11.548;2023-08-24T02:40:40;11.73;;;10.50;;
29812;SDS011;16707;48.106;11.548;2023-08-24T02:43:07;11.10;;;10.00;;
29812;SDS011;16707;48.106;11.548;2023-08-24T02:45:34;11.93;;;10.70;;
29812;SDS011;16707;48.106;11.548;2023-08-24T02:48:01;12.35;;;10.15;;
29812;SDS011;16707;48.106;11.548;2023-08-24T02:50:31;10.93;;;9.85;;
29812;SDS011;16707;48.106;11.548;2023-08-24T02:52:58;11.35;;;10.15;;
29812;SDS011;16707;48.106;11.548;2023-08-24T02:55:26;11.40;;;10.20;;
29812;SDS011;16707;48.106;11.548;2023-08-24T02:57:53;11.00;;;9.90;;
29812;SDS011;16707;48.106;11.548;2023-08-24T03:00:20;11.30;;;10.20;;
29812;SDS011;16707;48.106;11.548;2023-08-24T03:02:47;10.90;;;9.80;;
29812;SDS011;16707;48.106;11.548;2023-08-24T03:05:14;12.05;;;10.95;;
29812;SDS011;16707;48.106;11.548;2023-08-24T03:07:43;11.00;;;9.98;;
29812;SDS011;16707;48.106;11.548;2023-08-24T03:10:10;11.07;;;9.98;;
29812;SDS011;16707;48.106;11.548;2023-08-24T03:12:37;12.52;;;11.02;;
29812;SDS011;16707;48.106;11.548;2023-08-24T03:15:04;11.35;;;10.18;;
29812;SDS011;16707;48.106;11.548;2023-08-24T03:17:32;11.25;;;10.15;;
29812;SDS011;16707;48.106;11.548;2023-08-24T03:19:59;11.60;;;10.40;;
29812;SDS011;16707;48.106;11.548;2023-08-24T03:22:26;12.25;;;10.45;;
29812;SDS011;16707;48.106;11.548;2023-08-24T03:24:54;14.93;;;11.00;;
29812;SDS011;16707;48.106;11.548;2023-08-24T03:27:21;11.43;;;10.30;;
29812;SDS011;16707;48.106;11.548;2023-08-24T03:29:48;12.18;;;11.00;;
29812;SDS011;16707;48.106;11.548;2023-08-24T03:32:15;11.77;;;10.63;;
29812;SDS011;16707;48.106;11.548;2023-08-24T03:34:42;11.63;;;10.52;;
29812;SDS011;16707;48.106;11.548;2023-08-24T03:37:10;11.77;;;10.45;;
29812;SDS011;16707;48.106;11.548;2023-08-24T03:39:38;11.77;;;10.57;;
29812;SDS011;16707;48.106;11.548;2023-08-24T03:42:08;12.45;;;11.05;;
29812;SDS011;16707;48.106;11.548;2023-08-24T03:44:35;10.80;;;9.75;;
29812;SDS011;16707;48.106;11.548;2023-08-24T03:47:03;11.55;;;10.45;;
29812;SDS011;16707;48.106;11.548;2023-08-24T03:49:30;12.18;;;10.63;;
29812;SDS011;16707;48.106;11.548;2023-08-24T03:51:57;12.02;;;10.93;;
29812;SDS011;16707;48.106;11.548;2023-08-24T03:54:24;12.30;;;10.23;;
29812;SDS011;16707;48.106;11.548;2023-08-24T03:56:51;11.93;;;10.65;;
29812;SDS011;16707;48.106;11.548;2023-08-24T03:59:19;11.73;;;10.52;;
29812;SDS011;16707;48.106;11.548;2023-08-24T04:01:46;11.65;;;10.50;;
29812;SDS011;16707;48.106;11.548;2023-08-24T04:04:13;11.63;;;10.52;;
29812;SDS011;16707;48.106;11.548;2023-08-24T04:06:40;12.80;;;11.50;;
29812;SDS011;16707;48.106;11.548;2023-08-24T04:09:08;11.93;;;10.73;;
29812;SDS011;16707;48.106;11.548;2023-08-24T04:11:35;11.55;;;10.38;;
29812;SDS011;16707;48.106;11.548;2023-08-24T04:14:02;11.98;;;10.77;;
29812;SDS011;16707;48.106;11.548;2023-08-24T04:16:30;12.57;;;11.27;;
29812;SDS011;16707;48.106;11.548;2023-08-24T04:18:57;12.52;;;11.30;;
29812;SDS011;16707;48.106;11.548;2023-08-24T04:21:24;13.23;;;11.00;;
29812;SDS011;16707;48.106;11.548;2023-08-24T04:23:51;12.27;;;10.98;;
29812;SDS011;16707;48.106;11.548;2023-08-24T04:26:19;12.48;;;11.18;;
29812;SDS011;16707;48.106;11.548;2023-08-24T04:28:46;12.20;;;10.10;;
29812;SDS011;16707;48.106;11.548;2023-08-24T04:31:12;12.27;;;10.98;;
29812;SDS011;16707;48.106;11.548;2023-08-24T04:33:41;12.90;;;11.60;;
29812;SDS011;16707;48.106;11.548;2023-08-24T04:36:08;14.68;;;11.82;;
29812;SDS011;16707;48.106;11.548;2023-08-24T04:38:35;12.90;;;10.55;;
29812;SDS011;16707;48.106;11.548;2023-08-24T04:41:02;12.40;;;11.10;;
29812;SDS011;16707;48.106;11.548;2023-08-24T04:43:32;11.98;;;10.38;;
29812;SDS011;16707;48.106;11.548;2023-08-24T04:45:59;13.45;;;11.13;;
29812;SDS011;16707;48.106;11.548;2023-08-24T04:48:26;11.77;;;9.70;;
29812;SDS011;16707;48.106;11.548;2023-08-24T04:50:59;12.30;;;10.70;;
29812;SDS011;16707;48.106;11.548;2023-08-24T04:53:26;11.93;;;9.55;;
29812;SDS011;16707;48.106;11.548;2023-08-24T04:55:53;11.27;;;10.15;;
29812;SDS011;16707;48.106;11.548;2023-08-24T04:58:20;10.93;;;9.82;;
29812;SDS011;16707;48.106;11.548;2023-08-24T05:00:47;10.52;;;9.35;;
29812;SDS011;16707;48.106;11.548;2023-08-24T05:03:15;11.63;;;9.77;;
29812;SDS011;16707;48.106;11.548;2023-08-24T05:05:42;10.70;;;8.57;;
29812;SDS011;16707;48.106;11.548;2023-08-24T05:08:11;11.25;;;8.80;;
29812;SDS011;16707;48.106;11.548;2023-08-24T05:10:39;11.23;;;9.20;;
29812;SDS011;16707;48.106;11.548;2023-08-24T05:13:06;9.82;;;8.82;;
29812;SDS011;16707;48.106;11.548;2023-08-24T05:15:33;9.68;;;8.80;;
29812;SDS011;16707;48.106;11.548;2023-08-24T05:18:01;9.43;;;8.32;;
29812;SDS011;16707;48.106;11.548;2023-08-24T05:20:28;10.80;;;8.13;;
29812;SDS011;16707;48.106;11.548;2023-08-24T05:22:55;11.30;;;8.18;;
29812;SDS011;16707;48.106;11.548;2023-08-24T05:25:24;10.75;;;7.90;;
29812;SDS011;16707;48.106;11.548;2023-08-24T05:27:51;7.53;;;6.70;;
29812;SDS011;16707;48.106;11.548;2023-08-24T05:30:18;8.57;;;7.63;;
29812;SDS011;16707;48.106;11.548;2023-08-24T05:32:46;10.93;;;7.25;;
29812;SDS011;16707;48.106;11.548;2023-08-24T05:35:13;10.90;;;7.22;;
29812;SDS011;16707;48.106;11.548;2023-08-24T05:37:40;7.97;;;7.18;;
29812;SDS011;16707;48.106;11.548;2023-08-24T05:40:07;7.85;;;7.15;;
29812;SDS011;16707;48.106;11.548;2023-08-24T05:42:36;8.50;;;7.40;;
29812;SDS011;16707;48.106;11.548;2023-08-24T05:45:04;9.73;;;7.88;;
29812;SDS011;16707;48.106;11.548;2023-08-24T05:47:32;7.97;;;7.10;;
29812;SDS011;16707;48.106;11.548;2023-08-24T05:49:59;9.25;;;7.28;;
29812;SDS011;16707;48.106;11.548;2023-08-24T05:52:27;7.97;;;6.95;;
29812;SDS011;16707;48.106;11.548;2023-08-24T05:54:54;10.77;;;7.82;;
29812;SDS011;16707;48.106;11.548;2023-08-24T05:57:21;10.57;;;7.18;;
29812;SDS011;16707;48.106;11.548;2023-08-24T05:59:49;9.73;;;7.30;;
29812;SDS011;16707;48.106;11.548;2023-08-24T06:02:16;7.80;;;7.10;;
29812;SDS011;16707;48.106;11.548;2023-08-24T06:04:43;8.18;;;7.32;;
29812;SDS011;16707;48.106;11.548;2023-08-24T06:07:11;8.13;;;7.32;;
29812;SDS011;16707;48.106;11.548;2023-08-24T06:09:37;7.90;;;7.15;;
29812;SDS011;16707;48.106;11.548;2023-08-24T06:12:05;8.98;;;7.70;;
29812;SDS011;16707;48.106;11.548;2023-08-24T06:14:33;7.97;;;7.05;;
29812;SDS011;16707;48.106;11.548;2023-08-24T06:17:01;7.90;;;7.10;;
29812;SDS011;16707;48.106;11.548;2023-08-24T06:19:28;9.45;;;7.85;;
29812;SDS011;16707;48.106;11.548;2023-08-24T06:21:55;8.00;;;7.28;;
29812;SDS011;16707;48.106;11.548;2023-08-24T06:24:23;7.97;;;7.25;;
29812;SDS011;16707;48.106;11.548;2023-08-24T06:26:50;8.68;;;7.75;;
29812;SDS011;16707;48.106;11.548;2023-08-24T06:29:17;11.52;;;7.53;;
29812;SDS011;16707;48.106;11.548;2023-08-24T06:31:44;8.95;;;7.22;;
29812;SDS011;16707;48.106;11.548;2023-08-24T06:34:12;8.63;;;7.30;;
29812;SDS011;16707;48.106;11.548;2023-08-24T06:36:39;8.27;;;7.45;;
29812;SDS011;16707;48.106;11.548;2023-08-24T06:39:06;8.02;;;6.88;;
29812;SDS011;16707;48.106;11.548;2023-08-24T06:41:34;8.00;;;7.20;;
29812;SDS011;16707;48.106;11.548;2023-08-24T06:44:02;9.05;;;7.53;;
29812;SDS011;16707;48.106;11.548;2023-08-24T06:46:29;7.63;;;6.80;;
29812;SDS011;16707;48.106;11.548;2023-08-24T06:48:56;7.90;;;7.13;;
29812;SDS011;16707;48.106;11.548;2023-08-24T06:51:26;8.95;;;7.07;;
29812;SDS011;16707;48.106;11.548;2023-08-24T06:53:54;8.52;;;6.97;;
29812;SDS011;16707;48.106;11.548;2023-08-24T06:56:21;7.90;;;7.10;;
29812;SDS011;16707;48.106;11.548;2023-08-24T06:58:48;8.63;;;6.97;;
29812;SDS011;16707;48.106;11.548;2023-08-24T07:01:15;8.00;;;7.20;;
29812;SDS011;16707;48.106;11.548;2023-08-24T07:03:42;8.75;;;7.22;;
29812;SDS011;16707;48.106;11.548;2023-08-24T07:06:09;9.25;;;7.18;;
29812;SDS011;16707;48.106;11.548;2023-08-24T07:08:38;8.27;;;7.28;;
29812;SDS011;16707;48.106;11.548;2023-08-24T07:11:05;7.38;;;6.43;;
29812;SDS011;16707;48.106;11.548;2023-08-24T07:13:32;9.25;;;6.93;;
29812;SDS011;16707;48.106;11.548;2023-08-24T07:15:59;9.63;;;7.53;;
29812;SDS011;16707;48.106;11.548;2023-08-24T07:18:28;8.60;;;7.28;;
29812;SDS011;16707;48.106;11.548;2023-08-24T07:20:55;8.70;;;7.38;;
29812;SDS011;16707;48.106;11.548;2023-08-24T07:23:22;11.40;;;8.35;;
29812;SDS011;16707;48.106;11.548;2023-08-24T07:25:50;8.10;;;7.30;;
29812;SDS011;16707;48.106;11.548;2023-08-24T07:28:18;10.00;;;7.80;;
29812;SDS011;16707;48.106;11.548;2023-08-24T07:30:45;8.38;;;7.53;;
29812;SDS011;16707;48.106;11.548;2023-08-24T07:33:12;8.35;;;7.55;;
29812;SDS011;16707;48.106;11.548;2023-08-24T07:35:39;8.48;;;7.57;;
29812;SDS011;16707;48.106;11.548;2023-08-24T07:38:06;9.20;;;8.05;;
29812;SDS011;16707;48.106;11.548;2023-08-24T07:40:33;10.52;;;7.93;;
29812;SDS011;16707;48.106;11.548;2023-08-24T07:43:01;9.38;;;7.32;;
29812;SDS011;16707;48.106;11.548;2023-08-24T07:45:29;8.57;;;7.70;;
29812;SDS011;16707;48.106;11.548;2023-08-24T07:47:56;9.18;;;8.27;;
29812;SDS011;16707;48.106;11.548;2023-08-24T07:50:23;8.30;;;7.50;;
29812;SDS011;16707;48.106;11.548;2023-08-24T07:52:50;11.50;;;7.88;;
29812;SDS011;16707;48.106;11.548;2023-08-24T07:55:17;8.63;;;7.65;;
29812;SDS011;16707;48.106;11.548;2023-08-24T07:57:44;8.52;;;7.63;;
29812;SDS011;16707;48.106;11.548;2023-08-24T08:00:14;8.65;;;7.25;;
29812;SDS011;16707;48.106;11.548;2023-08-24T08:02:42;9.98;;;7.47;;
29812;SDS011;16707;48.106;11.548;2023-08-24T08:05:09;8.60;;;7.40;;
29812;SDS011;16707;48.106;11.548;2023-08-24T08:07:37;7.85;;;7.05;;
29812;SDS011;16707;48.106;11.548;2023-08-24T08:10:05;7.35;;;6.65;;
29812;SDS011;16707;48.106;11.548;2023-08-24T08:12:32;8.02;;;7.22;;
29812;SDS011;16707;48.106;11.548;2023-08-24T08:14:59;8.55;;;7.28;;
29812;SDS011;16707;48.106;11.548;2023-08-24T08:17:28;9.07;;;7.70;;
29812;SDS011;16707;48.106;11.548;2023-08-24T08:19:55;9.32;;;7.28;;
29812;SDS011;16707;48.106;11.548;2023-08-24T08:22:23;8.15;;;7.18;;
29812;SDS011;16707;48.106;11.548;2023-08-24T08:24:50;8.45;;;7.35;;
29812;SDS011;16707;48.106;11.548;2023-08-24T08:27:19;8.48;;;7.30;;
29812;SDS011;16707;48.106;11.548;2023-08-24T08:29:46;10.13;;;7.38;;
29812;SDS011;16707;48.106;11.548;2023-08-24T08:32:13;8.77;;;7.35;;
29812;SDS011;16707;48.106;11.548;2023-08-24T08:34:41;8.45;;;7.53;;
29812;SDS011;16707;48.106;11.548;2023-08-24T08:37:08;8.20;;;7.35;;
29812;SDS011;16707;48.106;11.548;2023-08-24T08:39:35;11.32;;;7.35;;
29812;SDS011;16707;48.106;11.548;2023-08-24T08:42:03;10.20;;;7.05;;
29812;SDS011;16707;48.106;11.548;2023-08-24T08:44:30;10.95;;;7.78;;
29812;SDS011;16707;48.106;11.548;2023-08-24T08:46:57;8.82;;;6.97;;
29812;SDS011;16707;48.106;11.548;2023-08-24T08:49:25;10.07;;;7.05;;
29812;SDS011;16707;48.106;11.548;2023-08-24T08:51:53;8.65;;;7.00;;
29812;SDS011;16707;48.106;11.548;2023-08-24T08:54:21;7.53;;;6.82;;
29812;SDS011;16707;48.106;11.548;2023-08-24T08:56:48;11.98;;;6.90;;
29812;SDS011;16707;48.106;11.548;2023-08-24T08:59:15;8.23;;;6.85;;
29812;SDS011;16707;48.106;11.548;2023-08-24T09:01:42;8.90;;;6.85;;
29812;SDS011;16707;48.106;11.548;2023-08-24T09:04:12;7.30;;;6.60;;
29812;SDS011;16707;48.106;11.548;2023-08-24T09:06:39;9.80;;;6.78;;
29812;SDS011;16707;48.106;11.548;2023-08-24T09:09:08;7.47;;;6.43;;
29812;SDS011;16707;48.106;11.548;2023-08-24T09:11:36;8.27;;;7.47;;
29812;SDS011;16707;48.106;11.548;2023-08-24T09:14:04;8.05;;;6.97;;
29812;SDS011;16707;48.106;11.548;2023-08-24T09:16:31;8.13;;;6.82;;
29812;SDS011;16707;48.106;11.548;2023-08-24T09:19:00;8.32;;;7.00;;
29812;SDS011;16707;48.106;11.548;2023-08-24T09:24:03;9.95;;;7.72;;
29812;SDS011;16707;48.106;11.548;2023-08-24T09:26:33;6.82;;;6.03;;
29812;SDS011;16707;48.106;11.548;2023-08-24T09:29:10;6.72;;;6.15;;
29812;SDS011;16707;48.106;11.548;2023-08-24T09:31:39;7.60;;;6.60;;
29812;SDS011;16707;48.106;11.548;2023-08-24T09:34:09;9.90;;;6.38;;
29812;SDS011;16707;48.106;11.548;2023-08-24T09:36:36;7.05;;;6.25;;
29812;SDS011;16707;48.106;11.548;2023-08-24T09:39:04;7.65;;;6.90;;
29812;SDS011;16707;48.106;11.548;2023-08-24T09:41:39;9.52;;;6.97;;
29812;SDS011;16707;48.106;11.548;2023-08-24T09:44:07;7.22;;;6.38;;
29812;SDS011;16707;48.106;11.548;2023-08-24T09:46:35;6.78;;;6.13;;
29812;SDS011;16707;48.106;11.548;2023-08-24T09:49:04;8.00;;;6.07;;
29812;SDS011;16707;48.106;11.548;2023-08-24T09:51:33;8.60;;;5.82;;
29812;SDS011;16707;48.106;11.548;2023-08-24T09:54:02;6.72;;;5.97;;
29812;SDS011;16707;48.106;11.548;2023-08-24T09:56:34;7.13;;;6.00;;
29812;SDS011;16707;48.106;11.548;2023-08-24T09:59:07;6.88;;;6.15;;
29812;SDS011;16707;48.106;11.548;2023-08-24T10:01:40;6.28;;;5.68;;
29812;SDS011;16707;48.106;11.548;2023-08-24T10:04:10;8.35;;;6.07;;
29812;SDS011;16707;48.106;11.548;2023-08-24T10:06:38;8.60;;;6.40;;
29812;SDS011;16707;48.106;11.548;2023-08-24T10:09:07;8.85;;;6.03;;
29812;SDS011;16707;48.106;11.548;2023-08-24T10:11:40;6.88;;;6.18;;
29812;SDS011;16707;48.106;11.548;2023-08-24T10:14:19;7.20;;;6.50;;
29812;SDS011;16707;48.106;11.548;2023-08-24T10:16:54;9.65;;;5.97;;
29812;SDS011;16707;48.106;11.548;2023-08-24T10:19:22;6.47;;;5.88;;
29812;SDS011;16707;48.106;11.548;2023-08-24T10:21:50;7.65;;;6.15;;
29812;SDS011;16707;48.106;11.548;2023-08-24T10:24:22;7.50;;;5.95;;
29812;SDS011;16707;48.106;11.548;2023-08-24T10:26:50;8.13;;;6.25;;
29812;SDS011;16707;48.106;11.548;2023-08-24T10:29:20;6.65;;;6.05;;
29812;SDS011;16707;48.106;11.548;2023-08-24T10:31:48;6.72;;;5.47;;
29812;SDS011;16707;48.106;11.548;2023-08-24T10:34:15;7.53;;;5.18;;
29812;SDS011;16707;48.106;11.548;2023-08-24T10:36:43;8.43;;;6.20;;
29812;SDS011;16707;48.106;11.548;2023-08-24T10:39:13;8.27;;;5.50;;
29812;SDS011;16707;48.106;11.548;2023-08-24T10:41:47;7.03;;;6.20;;
29812;SDS011;16707;48.106;11.548;2023-08-24T10:44:25;7.72;;;5.20;;
29812;SDS011;16707;48.106;11.548;2023-08-24T10:47:07;10.93;;;6.35;;
29812;SDS011;16707;48.106;11.548;2023-08-24T10:49:38;6.30;;;5.70;;
29812;SDS011;16707;48.106;11.548;2023-08-24T10:52:18;7.60;;;5.88;;
29812;SDS011;16707;48.106;11.548;2023-08-24T10:54:46;7.72;;;6.10;;
29812;SDS011;16707;48.106;11.548;2023-08-24T10:57:21;8.00;;;5.57;;
29812;SDS011;16707;48.106;11.548;2023-08-24T11:00:02;6.43;;;5.22;;
29812;SDS011;16707;48.106;11.548;2023-08-24T11:02:40;8.00;;;5.05;;
29812;SDS011;16707;48.106;11.548;2023-08-24T11:05:15;7.72;;;5.13;;
29812;SDS011;16707;48.106;11.548;2023-08-24T11:07:51;9.27;;;5.38;;
29812;SDS011;16707;48.106;11.548;2023-08-24T11:10:21;9.73;;;5.38;;
29812;SDS011;16707;48.106;11.548;2023-08-24T11:13:05;9.32;;;5.38;;
29812;SDS011;16707;48.106;11.548;2023-08-24T11:15:39;6.25;;;4.85;;
29812;SDS011;16707;48.106;11.548;2023-08-24T11:18:19;6.60;;;4.70;;
29812;SDS011;16707;48.106;11.548;2023-08-24T11:20:50;7.53;;;4.38;;
29812;SDS011;16707;48.106;11.548;2023-08-24T11:23:19;6.43;;;4.97;;
29812;SDS011;16707;48.106;11.548;2023-08-24T11:25:48;7.90;;;4.40;;
29812;SDS011;16707;48.106;11.548;2023-08-24T11:28:20;5.97;;;4.32;;
29812;SDS011;16707;48.106;11.548;2023-08-24T11:30:48;6.75;;;5.35;;
29812;SDS011;16707;48.106;11.548;2023-08-24T11:33:17;7.32;;;5.57;;
29812;SDS011;16707;48.106;11.548;2023-08-24T11:35:55;5.20;;;4.63;;
29812;SDS011;16707;48.106;11.548;2023-08-24T11:38:22;7.05;;;5.03;;
29812;SDS011;16707;48.106;11.548;2023-08-24T11:40:49;7.63;;;4.68;;
29812;SDS011;16707;48.106;11.548;2023-08-24T11:43:20;6.60;;;5.18;;
29812;SDS011;16707;48.106;11.548;2023-08-24T11:45:52;7.72;;;5.32;;
29812;SDS011;16707;48.106;11.548;2023-08-24T11:48:23;7.22;;;4.47;;
29812;SDS011;16707;48.106;11.548;2023-08-24T11:50:51;6.07;;;4.80;;
29812;SDS011;16707;48.106;11.548;2023-08-24T11:53:19;5.60;;;4.93;;
29812;SDS011;16707;48.106;11.548;2023-08-24T11:55:46;6.78;;;4.70;;
29812;SDS011;16707;48.106;11.548;2023-08-24T11:58:14;9.88;;;5.65;;
29812;SDS011;16707;48.106;11.548;2023-08-24T12:00:42;6.57;;;4.55;;
29812;SDS011;16707;48.106;11.548;2023-08-24T12:03:10;8.80;;;4.25;;
29812;SDS011;16707;48.106;11.548;2023-08-24T12:05:38;9.05;;;3.58;;
29812;SDS011;16707;48.106;11.548;2023-08-24T12:08:05;8.48;;;4.43;;
29812;SDS011;16707;48.106;11.548;2023-08-24T12:10:32;11.18;;;4.75;;
29812;SDS011;16707;48.106;11.548;2023-08-24T12:13:01;5.78;;;4.45;;
29812;SDS011;16707;48.106;11.548;2023-08-24T12:15:30;6.50;;;4.25;;
29812;SDS011;16707;48.106;11.548;2023-08-24T12:18:06;6.70;;;4.25;;
29812;SDS011;16707;48.106;11.548;2023-08-24T12:20:36;8.23;;;4.40;;
29812;SDS011;16707;48.106;11.548;2023-08-24T12:23:03;8.52;;;4.50;;
29812;SDS011;16707;48.106;11.548;2023-08-24T12:25:35;6.63;;;4.20;;
29812;SDS011;16707;48.106;11.548;2023-08-24T12:28:09;8.50;;;4.60;;
29812;SDS011;16707;48.106;11.548;2023-08-24T12:30:47;5.97;;;4.40;;
29812;SDS011;16707;48.106;11.548;2023-08-24T12:33:22;6.80;;;4.10;;
29812;SDS011;16707;48.106;11.548;2023-08-24T12:35:52;7.40;;;4.20;;
29812;SDS011;16707;48.106;11.548;2023-08-24T12:38:20;6.50;;;3.97;;
29812;SDS011;16707;48.106;11.548;2023-08-24T12:40:47;8.05;;;4.57;;
29812;SDS011;16707;48.106;11.548;2023-08-24T12:43:15;7.35;;;3.90;;
29812;SDS011;16707;48.106;11.548;2023-08-24T12:45:42;7.15;;;4.18;;
29812;SDS011;16707;48.106;11.548;2023-08-24T12:48:09;7.03;;;4.18;;
29812;SDS011;16707;48.106;11.548;2023-08-24T12:50:37;7.78;;;4.72;;
29812;SDS011;16707;48.106;11.548;2023-08-24T12:53:06;8.80;;;4.47;;
29812;SDS011;16707;48.106;11.548;2023-08-24T12:55:34;7.53;;;4.47;;
29812;SDS011;16707;48.106;11.548;2023-08-24T12:58:05;10.68;;;4.20;;
29812;SDS011;16707;48.106;11.548;2023-08-24T13:00:32;7.22;;;4.53;;
29812;SDS011;16707;48.106;11.548;2023-08-24T13:02:59;8.57;;;4.28;;
29812;SDS011;16707;48.106;11.548;2023-08-24T13:05:26;6.68;;;4.00;;
29812;SDS011;16707;48.106;11.548;2023-08-24T13:07:53;7.13;;;4.35;;
29812;SDS011;16707;48.106;11.548;2023-08-24T13:10:21;6.70;;;4.45;;
29812;SDS011;16707;48.106;11.548;2023-08-24T13:12:48;7.63;;;4.57;;
29812;SDS011;16707;48.106;11.548;2023-08-24T13:15:15;6.88;;;4.70;;
29812;SDS011;16707;48.106;11.548;2023-08-24T13:17:42;12.25;;;4.93;;
29812;SDS011;16707;48.106;11.548;2023-08-24T13:20:09;6.35;;;4.38;;
29812;SDS011;16707;48.106;11.548;2023-08-24T13:22:37;10.68;;;4.25;;
29812;SDS011;16707;48.106;11.548;2023-08-24T13:25:04;10.10;;;4.30;;
29812;SDS011;16707;48.106;11.548;2023-08-24T13:27:33;6.38;;;4.25;;
29812;SDS011;16707;48.106;11.548;2023-08-24T13:30:00;10.73;;;4.43;;
29812;SDS011;16707;48.106;11.548;2023-08-24T13:32:29;10.82;;;4.40;;
29812;SDS011;16707;48.106;11.548;2023-08-24T13:34:56;9.43;;;3.80;;
29812;SDS011;16707;48.106;11.548;2023-08-24T13:37:23;8.13;;;4.20;;
29812;SDS011;16707;48.106;11.548;2023-08-24T13:39:50;9.82;;;4.00;;
29812;SDS011;16707;48.106;11.548;2023-08-24T13:42:17;8.40;;;4.63;;
29812;SDS011;16707;48.106;11.548;2023-08-24T13:44:46;8.00;;;4.55;;
29812;SDS011;16707;48.106;11.548;2023-08-24T13:47:13;9.75;;;4.55;;
29812;SDS011;16707;48.106;11.548;2023-08-24T13:49:40;9.10;;;4.32;;
29812;SDS011;16707;48.106;11.548;2023-08-24T13:52:07;8.10;;;4.07;;
29812;SDS011;16707;48.106;11.548;2023-08-24T13:54:35;10.25;;;4.88;;
29812;SDS011;16707;48.106;11.548;2023-08-24T13:57:01;9.77;;;4.50;;
29812;SDS011;16707;48.106;11.548;2023-08-24T13:59:29;8.90;;;4.75;;
29812;SDS011;16707;48.106;11.548;2023-08-24T14:01:57;9.60;;;4.25;;
29812;SDS011;16707;48.106;11.548;2023-08-24T14:04:24;10.35;;;4.50;;
29812;SDS011;16707;48.106;11.548;2023-08-24T14:06:51;7.50;;;4.40;;
29812;SDS011;16707;48.106;11.548;2023-08-24T14:09:18;11.75;;;4.55;;
29812;SDS011;16707;48.106;11.548;2023-08-24T14:11:45;8.75;;;4.38;;
29812;SDS011;16707;48.106;11.548;2023-08-24T14:14:12;7.80;;;4.43;;
29812;SDS011;16707;48.106;11.548;2023-08-24T14:16:39;10.80;;;5.18;;
29812;SDS011;16707;48.106;11.548;2023-08-24T14:19:08;12.73;;;5.00;;
29812;SDS011;16707;48.106;11.548;2023-08-24T14:21:35;8.43;;;4.70;;
29812;SDS011;16707;48.106;11.548;2023-08-24T14:24:02;10.45;;;4.80;;
29812;SDS011;16707;48.106;11.548;2023-08-24T14:26:29;7.95;;;4.88;;
29812;SDS011;16707;48.106;11.548;2023-08-24T14:28:57;8.27;;;5.18;;
29812;SDS011;16707;48.106;11.548;2023-08-24T14:31:25;9.40;;;4.43;;
29812;SDS011;16707;48.106;11.548;2023-08-24T14:33:54;8.95;;;5.10;;
29812;SDS011;16707;48.106;11.548;2023-08-24T14:36:23;8.82;;;4.95;;